sensor_id;sensor_type;location;lat;lon;timestamp;pressure;altitude;pressure_sealevel;temperature;humidity
28267;BME280;15525;45.568;5.448;2024-02-26T00:01:58;96311.91;;;12.06;61.30
28267;BME280;15525;45.568;5.448;2024-02-26T00:04:23;96318.16;;;12.18;60.99
28267;BME280;15525;45.568;5.448;2024-02-26T00:06:49;96308.69;;;12.29;60.68
28267;BME280;15525;45.568;5.448;2024-02-26T00:09:16;96296.38;;;12.28;60.58
28267;BME280;15525;45.568;5.448;2024-02-26T00:11:42;96287.72;;;12.23;60.89
28267;BME280;15525;45.568;5.448;2024-02-26T00:14:07;96274.66;;;12.13;60.84
28267;BME280;15525;45.568;5.448;2024-02-26T00:16:32;96270.88;;;12.05;61.62
28267;BME280;15525;45.568;5.448;2024-02-26T00:18:58;96264.63;;;12.01;61.16
28267;BME280;15525;45.568;5.448;2024-02-26T00:21:24;96267.56;;;12.08;61.48
28267;BME280;15525;45.568;5.448;2024-02-26T00:23:49;96270.38;;;12.20;60.69
28267;BME280;15525;45.568;5.448;2024-02-26T00:26:16;96272.31;;;12.11;60.85
28267;BME280;15525;45.568;5.448;2024-02-26T00:28:41;96268.69;;;12.07;61.12
28267;BME280;15525;45.568;5.448;2024-02-26T00:31:06;96267.69;;;12.20;60.54
28267;BME280;15525;45.568;5.448;2024-02-26T00:33:32;96272.81;;;12.05;61.62
28267;BME280;15525;45.568;5.448;2024-02-26T00:35:57;96283.84;;;12.03;61.65
28267;BME280;15525;45.568;5.448;2024-02-26T00:38:23;96265.25;;;11.98;61.75
28267;BME280;15525;45.568;5.448;2024-02-26T00:40:48;96265.81;;;12.12;61.13
28267;BME280;15525;45.568;5.448;2024-02-26T00:43:13;96259.09;;;12.35;60.20
28267;BME280;15525;45.568;5.448;2024-02-26T00:45:39;96254.66;;;12.39;59.92
28267;BME280;15525;45.568;5.448;2024-02-26T00:48:04;96259.19;;;12.47;60.08
28267;BME280;15525;45.568;5.448;2024-02-26T00:50:31;96242.84;;;12.61;59.47
28267;BME280;15525;45.568;5.448;2024-02-26T00:52:56;96238.06;;;12.37;60.43
28267;BME280;15525;45.568;5.448;2024-02-26T00:55:22;96229.69;;;12.47;60.26
28267;BME280;15525;45.568;5.448;2024-02-26T00:57:47;96225.56;;;12.50;59.96
28267;BME280;15525;45.568;5.448;2024-02-26T01:00:13;96206.56;;;12.34;60.49
28267;BME280;15525;45.568;5.448;2024-02-26T01:02:39;96209.59;;;12.53;59.95
28267;BME280;15525;45.568;5.448;2024-02-26T01:05:05;96208.44;;;12.34;60.36
28267;BME280;15525;45.568;5.448;2024-02-26T01:07:31;96206.84;;;12.62;59.32
28267;BME280;15525;45.568;5.448;2024-02-26T01:10:01;96190.00;;;12.73;59.22
28267;BME280;15525;45.568;5.448;2024-02-26T01:12:27;96195.91;;;12.87;58.63
28267;BME280;15525;45.568;5.448;2024-02-26T01:14:52;96195.97;;;12.79;58.68
28267;BME280;15525;45.568;5.448;2024-02-26T01:17:17;96190.41;;;12.84;58.47
28267;BME280;15525;45.568;5.448;2024-02-26T01:19:43;96181.00;;;12.78;58.42
28267;BME280;15525;45.568;5.448;2024-02-26T01:22:10;96190.00;;;12.73;58.76
28267;BME280;15525;45.568;5.448;2024-02-26T01:24:35;96202.66;;;12.73;58.96
28267;BME280;15525;45.568;5.448;2024-02-26T01:27:01;96213.44;;;12.64;59.22
28267;BME280;15525;45.568;5.448;2024-02-26T01:29:26;96213.44;;;12.64;59.41
28267;BME280;15525;45.568;5.448;2024-02-26T01:31:52;96218.03;;;12.64;59.54
28267;BME280;15525;45.568;5.448;2024-02-26T01:34:17;96216.13;;;12.64;59.32
28267;BME280;15525;45.568;5.448;2024-02-26T01:36:43;96222.16;;;12.61;59.15
28267;BME280;15525;45.568;5.448;2024-02-26T01:39:09;96224.25;;;12.56;59.58
28267;BME280;15525;45.568;5.448;2024-02-26T01:41:38;96232.16;;;12.52;60.04
28267;BME280;15525;45.568;5.448;2024-02-26T01:44:03;96219.88;;;12.51;59.57
28267;BME280;15525;45.568;5.448;2024-02-26T01:46:29;96215.16;;;12.48;59.68
28267;BME280;15525;45.568;5.448;2024-02-26T01:48:57;96209.66;;;12.45;60.08
28267;BME280;15525;45.568;5.448;2024-02-26T01:51:23;96212.03;;;12.38;60.16
28267;BME280;15525;45.568;5.448;2024-02-26T01:53:49;96207.59;;;12.42;60.14
28267;BME280;15525;45.568;5.448;2024-02-26T01:56:15;96208.72;;;12.41;60.25
28267;BME280;15525;45.568;5.448;2024-02-26T01:58:42;96203.69;;;12.39;60.20
28267;BME280;15525;45.568;5.448;2024-02-26T02:01:08;96207.81;;;12.37;60.14
28267;BME280;15525;45.568;5.448;2024-02-26T02:03:35;96202.63;;;12.32;60.16
28267;BME280;15525;45.568;5.448;2024-02-26T02:06:02;96200.88;;;12.36;60.55
28267;BME280;15525;45.568;5.448;2024-02-26T02:08:27;96185.53;;;12.36;60.09
28267;BME280;15525;45.568;5.448;2024-02-26T02:10:53;96164.56;;;12.38;60.55
28267;BME280;15525;45.568;5.448;2024-02-26T02:13:18;96168.31;;;12.37;60.35
28267;BME280;15525;45.568;5.448;2024-02-26T02:15:44;96160.81;;;12.31;60.17
28267;BME280;15525;45.568;5.448;2024-02-26T02:18:09;96157.84;;;12.24;60.37
28267;BME280;15525;45.568;5.448;2024-02-26T02:20:35;96163.34;;;12.27;60.69
28267;BME280;15525;45.568;5.448;2024-02-26T02:23:01;96164.59;;;12.30;60.07
28267;BME280;15525;45.568;5.448;2024-02-26T02:25:28;96186.06;;;12.30;59.97
28267;BME280;15525;45.568;5.448;2024-02-26T02:27:54;96179.00;;;12.25;60.76
28267;BME280;15525;45.568;5.448;2024-02-26T02:30:25;96172.72;;;12.21;60.75
28267;BME280;15525;45.568;5.448;2024-02-26T02:32:52;96155.69;;;12.17;60.78
28267;BME280;15525;45.568;5.448;2024-02-26T02:35:17;96143.91;;;12.10;61.36
28267;BME280;15525;45.568;5.448;2024-02-26T02:37:43;96137.16;;;12.04;61.23
28267;BME280;15525;45.568;5.448;2024-02-26T02:40:08;96138.09;;;12.08;61.09
28267;BME280;15525;45.568;5.448;2024-02-26T02:42:33;96145.97;;;12.04;60.90
28267;BME280;15525;45.568;5.448;2024-02-26T02:44:59;96144.88;;;12.05;61.18
28267;BME280;15525;45.568;5.448;2024-02-26T02:47:24;96142.84;;;12.02;61.11
28267;BME280;15525;45.568;5.448;2024-02-26T02:49:50;96133.69;;;12.03;60.71
28267;BME280;15525;45.568;5.448;2024-02-26T02:52:15;96140.63;;;12.04;60.99
28267;BME280;15525;45.568;5.448;2024-02-26T02:54:40;96149.47;;;12.05;60.97
28267;BME280;15525;45.568;5.448;2024-02-26T02:57:08;96155.16;;;12.03;60.71
28267;BME280;15525;45.568;5.448;2024-02-26T02:59:34;96173.47;;;12.01;60.48
28267;BME280;15525;45.568;5.448;2024-02-26T03:02:00;96172.56;;;11.88;61.26
28267;BME280;15525;45.568;5.448;2024-02-26T03:04:25;96166.88;;;11.90;61.36
28267;BME280;15525;45.568;5.448;2024-02-26T03:06:51;96178.09;;;11.92;61.43
28267;BME280;15525;45.568;5.448;2024-02-26T03:09:16;96157.88;;;11.95;61.06
28267;BME280;15525;45.568;5.448;2024-02-26T03:11:41;96164.81;;;11.96;60.91
28267;BME280;15525;45.568;5.448;2024-02-26T03:14:07;96154.72;;;11.93;61.30
28267;BME280;15525;45.568;5.448;2024-02-26T03:16:33;96150.16;;;11.93;61.21
28267;BME280;15525;45.568;5.448;2024-02-26T03:18:58;96156.16;;;11.90;61.00
28267;BME280;15525;45.568;5.448;2024-02-26T03:21:25;96153.03;;;11.88;61.34
28267;BME280;15525;45.568;5.448;2024-02-26T03:23:50;96134.78;;;11.82;61.18
28267;BME280;15525;45.568;5.448;2024-02-26T03:26:16;96134.72;;;11.90;61.29
28267;BME280;15525;45.568;5.448;2024-02-26T03:28:42;96135.81;;;11.89;61.25
28267;BME280;15525;45.568;5.448;2024-02-26T03:31:07;96140.38;;;11.97;60.69
28267;BME280;15525;45.568;5.448;2024-02-26T03:33:32;96136.13;;;11.96;60.92
28267;BME280;15525;45.568;5.448;2024-02-26T03:35:58;96132.72;;;11.78;61.23
28267;BME280;15525;45.568;5.448;2024-02-26T03:38:23;96130.22;;;11.73;61.41
28267;BME280;15525;45.568;5.448;2024-02-26T03:40:49;96135.22;;;11.83;61.35
28267;BME280;15525;45.568;5.448;2024-02-26T03:43:16;96118.69;;;11.82;61.43
28267;BME280;15525;45.568;5.448;2024-02-26T03:45:42;96119.81;;;11.81;61.24
28267;BME280;15525;45.568;5.448;2024-02-26T03:48:07;96111.56;;;11.86;61.38
28267;BME280;15525;45.568;5.448;2024-02-26T03:50:33;96087.28;;;11.82;61.04
28267;BME280;15525;45.568;5.448;2024-02-26T03:52:59;96102.94;;;11.80;61.08
28267;BME280;15525;45.568;5.448;2024-02-26T03:55:25;96116.25;;;11.88;60.91
28267;BME280;15525;45.568;5.448;2024-02-26T03:57:51;96111.84;;;11.93;60.98
28267;BME280;15525;45.568;5.448;2024-02-26T04:00:17;96099.22;;;11.93;60.98
28267;BME280;15525;45.568;5.448;2024-02-26T04:02:42;96113.13;;;11.87;61.08
28267;BME280;15525;45.568;5.448;2024-02-26T04:05:11;96117.88;;;11.81;61.25
28267;BME280;15525;45.568;5.448;2024-02-26T04:07:36;96131.47;;;11.76;61.60
28267;BME280;15525;45.568;5.448;2024-02-26T04:10:02;96139.25;;;11.69;61.14
28267;BME280;15525;45.568;5.448;2024-02-26T04:12:30;96130.72;;;11.76;61.24
28267;BME280;15525;45.568;5.448;2024-02-26T04:14:55;96112.81;;;11.88;60.94
28267;BME280;15525;45.568;5.448;2024-02-26T04:17:21;96111.56;;;11.86;60.54
28267;BME280;15525;45.568;5.448;2024-02-26T04:19:46;96099.13;;;11.81;60.90
28267;BME280;15525;45.568;5.448;2024-02-26T04:22:12;96101.22;;;11.76;61.22
28267;BME280;15525;45.568;5.448;2024-02-26T04:24:37;96119.81;;;11.81;60.73
28267;BME280;15525;45.568;5.448;2024-02-26T04:27:02;96115.13;;;11.69;61.24
28267;BME280;15525;45.568;5.448;2024-02-26T04:29:28;96109.78;;;11.69;61.27
28267;BME280;15525;45.568;5.448;2024-02-26T04:31:53;96113.19;;;11.78;61.46
28267;BME280;15525;45.568;5.448;2024-02-26T04:34:19;96096.00;;;11.79;61.19
28267;BME280;15525;45.568;5.448;2024-02-26T04:36:44;96112.09;;;11.70;61.23
28267;BME280;15525;45.568;5.448;2024-02-26T04:39:09;96115.31;;;11.64;61.40
28267;BME280;15525;45.568;5.448;2024-02-26T04:41:35;96102.38;;;11.66;61.29
28267;BME280;15525;45.568;5.448;2024-02-26T04:44:01;96105.38;;;11.64;61.23
28267;BME280;15525;45.568;5.448;2024-02-26T04:46:27;96115.44;;;11.59;61.45
28267;BME280;15525;45.568;5.448;2024-02-26T04:48:53;96114.53;;;11.63;61.42
28267;BME280;15525;45.568;5.448;2024-02-26T04:51:19;96105.69;;;11.63;61.61
28267;BME280;15525;45.568;5.448;2024-02-26T04:53:44;96098.75;;;11.62;61.60
28267;BME280;15525;45.568;5.448;2024-02-26T04:56:10;96091.53;;;11.63;61.62
28267;BME280;15525;45.568;5.448;2024-02-26T04:58:35;96085.97;;;11.59;61.81
28267;BME280;15525;45.568;5.448;2024-02-26T05:01:00;96101.56;;;11.65;61.56
28267;BME280;15525;45.568;5.448;2024-02-26T05:03:26;96104.72;;;11.68;61.23
28267;BME280;15525;45.568;5.448;2024-02-26T05:05:51;96109.28;;;11.67;61.04
28267;BME280;15525;45.568;5.448;2024-02-26T05:08:17;96134.72;;;11.61;61.35
28267;BME280;15525;45.568;5.448;2024-02-26T05:10:45;96120.50;;;11.60;61.81
28267;BME280;15525;45.568;5.448;2024-02-26T05:13:10;96116.41;;;11.63;61.19
28267;BME280;15525;45.568;5.448;2024-02-26T05:15:36;96116.69;;;11.70;61.31
28267;BME280;15525;45.568;5.448;2024-02-26T05:18:02;96120.69;;;11.64;61.46
28267;BME280;15525;45.568;5.448;2024-02-26T05:20:28;96117.22;;;11.55;61.91
28267;BME280;15525;45.568;5.448;2024-02-26T05:22:54;96112.94;;;11.54;61.67
28267;BME280;15525;45.568;5.448;2024-02-26T05:25:19;96114.84;;;11.53;61.98
28267;BME280;15525;45.568;5.448;2024-02-26T05:27:45;96114.06;;;11.53;62.15
28267;BME280;15525;45.568;5.448;2024-02-26T05:30:11;96113.59;;;11.59;62.17
28267;BME280;15525;45.568;5.448;2024-02-26T05:32:37;96100.31;;;11.63;61.67
28267;BME280;15525;45.568;5.448;2024-02-26T05:35:02;96103.56;;;11.77;61.22
28267;BME280;15525;45.568;5.448;2024-02-26T05:37:29;96110.84;;;11.77;61.39
28267;BME280;15525;45.568;5.448;2024-02-26T05:39:54;96106.28;;;11.68;61.57
28267;BME280;15525;45.568;5.448;2024-02-26T05:42:20;96112.59;;;11.73;61.54
28267;BME280;15525;45.568;5.448;2024-02-26T05:44:45;96103.94;;;11.67;61.61
28267;BME280;15525;45.568;5.448;2024-02-26T05:47:10;96102.38;;;11.66;61.40
28267;BME280;15525;45.568;5.448;2024-02-26T05:49:36;96094.66;;;11.64;61.37
28267;BME280;15525;45.568;5.448;2024-02-26T05:52:01;96087.41;;;11.65;61.54
28267;BME280;15525;45.568;5.448;2024-02-26T05:54:27;96102.56;;;11.61;61.23
28267;BME280;15525;45.568;5.448;2024-02-26T05:56:52;96094.97;;;11.63;61.63
28267;BME280;15525;45.568;5.448;2024-02-26T05:59:18;96096.41;;;11.60;61.47
28267;BME280;15525;45.568;5.448;2024-02-26T06:01:43;96102.03;;;11.59;61.64
28267;BME280;15525;45.568;5.448;2024-02-26T06:04:09;96095.31;;;11.53;61.23
28267;BME280;15525;45.568;5.448;2024-02-26T06:06:34;96102.56;;;11.52;61.33
28267;BME280;15525;45.568;5.448;2024-02-26T06:09:00;96094.09;;;11.42;61.44
28267;BME280;15525;45.568;5.448;2024-02-26T06:11:25;96095.53;;;11.39;61.55
28267;BME280;15525;45.568;5.448;2024-02-26T06:13:50;96090.03;;;11.36;61.39
28267;BME280;15525;45.568;5.448;2024-02-26T06:16:16;96102.16;;;11.33;61.76
28267;BME280;15525;45.568;5.448;2024-02-26T06:18:41;96101.88;;;11.26;61.65
28267;BME280;15525;45.568;5.448;2024-02-26T06:21:10;96115.28;;;11.18;61.42
28267;BME280;15525;45.568;5.448;2024-02-26T06:23:36;96114.81;;;11.16;62.13
28267;BME280;15525;45.568;5.448;2024-02-26T06:26:01;96118.44;;;11.20;61.97
28267;BME280;15525;45.568;5.448;2024-02-26T06:28:27;96111.53;;;11.19;61.78
28267;BME280;15525;45.568;5.448;2024-02-26T06:30:55;96113.91;;;11.12;61.66
28267;BME280;15525;45.568;5.448;2024-02-26T06:33:21;96119.56;;;11.10;61.84
28267;BME280;15525;45.568;5.448;2024-02-26T06:35:46;96114.06;;;11.07;61.76
28267;BME280;15525;45.568;5.448;2024-02-26T06:38:12;96120.66;;;11.09;61.89
28267;BME280;15525;45.568;5.448;2024-02-26T06:40:39;96125.72;;;11.11;61.65
28267;BME280;15525;45.568;5.448;2024-02-26T06:43:04;96140.22;;;11.10;61.72
28267;BME280;15525;45.568;5.448;2024-02-26T06:45:29;96127.13;;;11.08;61.47
28267;BME280;15525;45.568;5.448;2024-02-26T06:47:55;96134.69;;;11.15;61.99
28267;BME280;15525;45.568;5.448;2024-02-26T06:50:21;96129.47;;;11.18;61.32
28267;BME280;15525;45.568;5.448;2024-02-26T06:52:47;96137.31;;;11.23;61.99
28267;BME280;15525;45.568;5.448;2024-02-26T06:55:13;96142.06;;;11.26;61.87
28267;BME280;15525;45.568;5.448;2024-02-26T06:57:38;96135.91;;;11.26;61.56
28267;BME280;15525;45.568;5.448;2024-02-26T07:00:04;96132.28;;;11.30;60.96
28267;BME280;15525;45.568;5.448;2024-02-26T07:02:29;96138.56;;;11.34;61.66
28267;BME280;15525;45.568;5.448;2024-02-26T07:04:55;96145.81;;;11.34;61.10
28267;BME280;15525;45.568;5.448;2024-02-26T07:07:23;96140.91;;;11.36;61.51
28267;BME280;15525;45.568;5.448;2024-02-26T07:09:49;96148.13;;;11.44;61.34
28267;BME280;15525;45.568;5.448;2024-02-26T07:12:14;96141.66;;;11.53;60.97
28267;BME280;15525;45.568;5.448;2024-02-26T07:14:41;96134.72;;;11.61;60.90
28267;BME280;15525;45.568;5.448;2024-02-26T07:17:06;96143.69;;;11.65;61.18
28267;BME280;15525;45.568;5.448;2024-02-26T07:19:32;96138.31;;;11.65;61.29
28267;BME280;15525;45.568;5.448;2024-02-26T07:21:57;96143.50;;;11.70;60.98
28267;BME280;15525;45.568;5.448;2024-02-26T07:24:23;96136.09;;;11.67;61.28
28267;BME280;15525;45.568;5.448;2024-02-26T07:26:48;96154.03;;;11.75;61.04
28267;BME280;15525;45.568;5.448;2024-02-26T07:29:13;96142.69;;;11.78;60.90
28267;BME280;15525;45.568;5.448;2024-02-26T07:31:39;96142.94;;;11.85;60.72
28267;BME280;15525;45.568;5.448;2024-02-26T07:34:04;96145.63;;;11.85;60.97
28267;BME280;15525;45.568;5.448;2024-02-26T07:36:30;96152.19;;;11.96;60.94
28267;BME280;15525;45.568;5.448;2024-02-26T07:38:55;96151.22;;;12.01;61.07
28267;BME280;15525;45.568;5.448;2024-02-26T07:41:20;96159.13;;;11.97;61.24
28267;BME280;15525;45.568;5.448;2024-02-26T07:43:46;96168.34;;;12.08;60.96
28267;BME280;15525;45.568;5.448;2024-02-26T07:46:12;96168.78;;;12.19;60.99
28267;BME280;15525;45.568;5.448;2024-02-26T07:48:38;96167.34;;;12.21;60.67
28267;BME280;15525;45.568;5.448;2024-02-26T07:51:04;96172.72;;;12.21;60.75
28267;BME280;15525;45.568;5.448;2024-02-26T07:53:29;96169.19;;;12.29;60.57
28267;BME280;15525;45.568;5.448;2024-02-26T07:55:55;96188.03;;;12.41;60.61
28267;BME280;15525;45.568;5.448;2024-02-26T07:58:22;96177.97;;;12.38;60.64
28267;BME280;15525;45.568;5.448;2024-02-26T08:00:48;96188.00;;;12.50;60.81
28267;BME280;15525;45.568;5.448;2024-02-26T08:03:14;96183.66;;;12.57;60.24
28267;BME280;15525;45.568;5.448;2024-02-26T08:05:41;96178.09;;;12.62;60.51
28267;BME280;15525;45.568;5.448;2024-02-26T08:08:08;96166.66;;;12.74;60.37
28267;BME280;15525;45.568;5.448;2024-02-26T08:10:33;96159.91;;;12.88;60.13
28267;BME280;15525;45.568;5.448;2024-02-26T08:12:59;96156.63;;;13.03;60.13
28267;BME280;15525;45.568;5.448;2024-02-26T08:15:31;96164.06;;;13.18;59.80
28267;BME280;15525;45.568;5.448;2024-02-26T08:17:56;96156.59;;;13.24;59.59
28267;BME280;15525;45.568;5.448;2024-02-26T08:20:22;96153.78;;;13.32;59.60
28267;BME280;15525;45.568;5.448;2024-02-26T08:22:47;96163.78;;;13.32;59.63
28267;BME280;15525;45.568;5.448;2024-02-26T08:25:12;96161.78;;;13.41;59.36
28267;BME280;15525;45.568;5.448;2024-02-26T08:27:38;96171.91;;;13.80;59.15
28267;BME280;15525;45.568;5.448;2024-02-26T08:30:04;96163.31;;;14.22;58.33
28267;BME280;15525;45.568;5.448;2024-02-26T08:32:29;96171.56;;;14.53;57.71
28267;BME280;15525;45.568;5.448;2024-02-26T08:34:55;96177.00;;;15.08;57.08
28267;BME280;15525;45.568;5.448;2024-02-26T08:37:21;96177.91;;;15.12;56.34
28267;BME280;15525;45.568;5.448;2024-02-26T08:39:46;96169.56;;;15.17;56.53
28267;BME280;15525;45.568;5.448;2024-02-26T08:42:12;96172.50;;;15.12;56.18
28267;BME280;15525;45.568;5.448;2024-02-26T08:44:37;96175.63;;;14.87;56.59
28267;BME280;15525;45.568;5.448;2024-02-26T08:47:03;96185.81;;;14.93;57.34
28267;BME280;15525;45.568;5.448;2024-02-26T08:49:28;96187.81;;;14.96;56.67
28267;BME280;15525;45.568;5.448;2024-02-26T08:51:53;96188.88;;;14.92;57.15
28267;BME280;15525;45.568;5.448;2024-02-26T08:54:19;96195.41;;;14.79;56.90
28267;BME280;15525;45.568;5.448;2024-02-26T08:56:44;96194.03;;;14.85;56.13
28267;BME280;15525;45.568;5.448;2024-02-26T08:59:09;96202.28;;;15.04;55.97
28267;BME280;15525;45.568;5.448;2024-02-26T09:01:35;96192.47;;;15.11;55.44
28267;BME280;15525;45.568;5.448;2024-02-26T09:04:00;96202.34;;;15.19;55.99
28267;BME280;15525;45.568;5.448;2024-02-26T09:06:26;96197.81;;;15.23;55.74
28267;BME280;15525;45.568;5.448;2024-02-26T09:08:51;96207.13;;;15.26;55.63
28267;BME280;15525;45.568;5.448;2024-02-26T09:11:16;96199.13;;;15.29;55.97
28267;BME280;15525;45.568;5.448;2024-02-26T09:13:42;96215.63;;;15.40;55.47
28267;BME280;15525;45.568;5.448;2024-02-26T09:16:07;96201.81;;;15.41;56.12
28267;BME280;15525;45.568;5.448;2024-02-26T09:18:33;96213.03;;;15.43;55.67
28267;BME280;15525;45.568;5.448;2024-02-26T09:20:58;96219.94;;;15.29;56.22
28267;BME280;15525;45.568;5.448;2024-02-26T09:23:23;96222.19;;;15.27;56.55
28267;BME280;15525;45.568;5.448;2024-02-26T09:25:49;96218.38;;;15.28;56.50
28267;BME280;15525;45.568;5.448;2024-02-26T09:28:14;96218.59;;;15.35;56.12
28267;BME280;15525;45.568;5.448;2024-02-26T09:30:43;96223.72;;;15.40;55.76
28267;BME280;15525;45.568;5.448;2024-02-26T09:33:08;96222.50;;;15.37;56.05
28267;BME280;15525;45.568;5.448;2024-02-26T09:35:34;96226.19;;;15.45;55.35
28267;BME280;15525;45.568;5.448;2024-02-26T09:37:59;96226.28;;;15.48;55.27
28267;BME280;15525;45.568;5.448;2024-02-26T09:40:24;96230.72;;;15.56;55.11
28267;BME280;15525;45.568;5.448;2024-02-26T09:42:52;96236.56;;;15.58;54.96
28267;BME280;15525;45.568;5.448;2024-02-26T09:45:21;96239.69;;;15.60;55.11
28267;BME280;15525;45.568;5.448;2024-02-26T09:47:48;96241.03;;;15.39;55.25
28267;BME280;15525;45.568;5.448;2024-02-26T09:50:16;96251.81;;;15.39;54.75
28267;BME280;15525;45.568;5.448;2024-02-26T09:52:43;96246.00;;;15.37;54.69
28267;BME280;15525;45.568;5.448;2024-02-26T09:55:08;96245.00;;;15.57;53.94
28267;BME280;15525;45.568;5.448;2024-02-26T09:57:37;96243.31;;;15.80;53.67
28267;BME280;15525;45.568;5.448;2024-02-26T10:00:04;96240.63;;;15.95;52.87
28267;BME280;15525;45.568;5.448;2024-02-26T10:02:35;96244.00;;;16.70;52.06
28267;BME280;15525;45.568;5.448;2024-02-26T10:05:02;96234.56;;;17.71;50.39
28267;BME280;15525;45.568;5.448;2024-02-26T10:07:32;96232.38;;;18.44;48.81
28267;BME280;15525;45.568;5.448;2024-02-26T10:09:58;96221.28;;;18.30;48.67
28267;BME280;15525;45.568;5.448;2024-02-26T10:12:23;96228.88;;;18.43;48.39
28267;BME280;15525;45.568;5.448;2024-02-26T10:14:51;96222.28;;;18.67;48.21
28267;BME280;15525;45.568;5.448;2024-02-26T10:17:16;96229.53;;;18.59;48.06
28267;BME280;15525;45.568;5.448;2024-02-26T10:19:43;96232.16;;;18.11;48.84
28267;BME280;15525;45.568;5.448;2024-02-26T10:22:09;96222.28;;;18.67;47.90
28267;BME280;15525;45.568;5.448;2024-02-26T10:24:34;96223.50;;;18.99;47.57
28267;BME280;15525;45.568;5.448;2024-02-26T10:26:59;96227.50;;;19.08;47.51
28267;BME280;15525;45.568;5.448;2024-02-26T10:29:25;96233.97;;;19.59;46.70
28267;BME280;15525;45.568;5.448;2024-02-26T10:31:51;96225.19;;;19.69;46.23
28267;BME280;15525;45.568;5.448;2024-02-26T10:34:18;96221.50;;;19.55;46.08
28267;BME280;15525;45.568;5.448;2024-02-26T10:36:43;96216.91;;;19.59;46.23
28267;BME280;15525;45.568;5.448;2024-02-26T10:39:11;96218.94;;;19.06;46.20
28267;BME280;15525;45.568;5.448;2024-02-26T10:41:37;96224.00;;;18.78;46.82
28267;BME280;15525;45.568;5.448;2024-02-26T10:44:03;96212.06;;;19.16;45.91
28267;BME280;15525;45.568;5.448;2024-02-26T10:46:28;96214.09;;;19.85;44.96
28267;BME280;15525;45.568;5.448;2024-02-26T10:48:54;96217.53;;;19.82;44.28
28267;BME280;15525;45.568;5.448;2024-02-26T10:51:25;96215.34;;;19.58;43.65
28267;BME280;15525;45.568;5.448;2024-02-26T10:53:51;96221.31;;;19.70;43.16
28267;BME280;15525;45.568;5.448;2024-02-26T10:56:24;96213.47;;;20.05;43.28
28267;BME280;15525;45.568;5.448;2024-02-26T10:58:52;96212.44;;;20.60;42.91
28267;BME280;15525;45.568;5.448;2024-02-26T11:01:18;96220.84;;;20.01;42.44
28267;BME280;15525;45.568;5.448;2024-02-26T11:03:45;96221.47;;;19.51;43.18
28267;BME280;15525;45.568;5.448;2024-02-26T11:06:12;96208.59;;;19.81;42.73
28267;BME280;15525;45.568;5.448;2024-02-26T11:08:38;96198.56;;;20.25;42.07
28267;BME280;15525;45.568;5.448;2024-02-26T11:11:04;96198.09;;;20.16;40.38
28267;BME280;15525;45.568;5.448;2024-02-26T11:13:31;96204.19;;;20.06;42.10
28267;BME280;15525;45.568;5.448;2024-02-26T11:15:57;96182.53;;;20.13;41.90
28267;BME280;15525;45.568;5.448;2024-02-26T11:18:26;96192.03;;;19.90;41.02
28267;BME280;15525;45.568;5.448;2024-02-26T11:20:52;96200.25;;;19.60;41.37
28267;BME280;15525;45.568;5.448;2024-02-26T11:23:21;96181.00;;;20.12;40.93
28267;BME280;15525;45.568;5.448;2024-02-26T11:25:47;96185.75;;;20.80;40.30
28267;BME280;15525;45.568;5.448;2024-02-26T11:28:16;96178.91;;;21.00;39.33
28267;BME280;15525;45.568;5.448;2024-02-26T11:30:46;96184.97;;;20.79;39.65
28267;BME280;15525;45.568;5.448;2024-02-26T11:33:13;96186.56;;;20.30;40.39
28267;BME280;15525;45.568;5.448;2024-02-26T11:35:40;96185.09;;;20.39;40.90
28267;BME280;15525;45.568;5.448;2024-02-26T11:38:06;96187.81;;;20.94;39.66
28267;BME280;15525;45.568;5.448;2024-02-26T11:40:33;96181.38;;;20.65;39.52
28267;BME280;15525;45.568;5.448;2024-02-26T11:42:59;96184.19;;;20.25;40.62
28267;BME280;15525;45.568;5.448;2024-02-26T11:48:15;96191.16;;;19.46;41.58
28267;BME280;15525;45.568;5.448;2024-02-26T11:50:47;96185.69;;;20.19;40.59
28267;BME280;15525;45.568;5.448;2024-02-26T11:53:25;96179.22;;;20.37;39.83
28267;BME280;15525;45.568;5.448;2024-02-26T11:56:13;96194.09;;;19.30;40.31
28267;BME280;15525;45.568;5.448;2024-02-26T11:58:45;96198.81;;;19.07;41.27
28267;BME280;15525;45.568;5.448;2024-02-26T12:04:02;96180.28;;;20.19;39.58
28267;BME280;15525;45.568;5.448;2024-02-26T12:06:28;96179.66;;;20.39;39.41
28267;BME280;15525;45.568;5.448;2024-02-26T12:08:54;96183.47;;;19.51;40.26
28267;BME280;15525;45.568;5.448;2024-02-26T12:11:20;96194.41;;;19.25;41.11
28267;BME280;15525;45.568;5.448;2024-02-26T12:13:49;96179.56;;;20.29;39.42
28267;BME280;15525;45.568;5.448;2024-02-26T12:16:39;96176.56;;;20.95;37.84
28267;BME280;15525;45.568;5.448;2024-02-26T12:19:08;96192.28;;;19.78;39.71
28267;BME280;15525;45.568;5.448;2024-02-26T12:21:37;96185.88;;;19.56;39.67
28267;BME280;15525;45.568;5.448;2024-02-26T12:24:14;96192.72;;;19.83;39.70
28267;BME280;15525;45.568;5.448;2024-02-26T12:26:41;96195.09;;;20.28;39.46
28267;BME280;15525;45.568;5.448;2024-02-26T12:29:07;96199.03;;;19.94;40.05
28267;BME280;15525;45.568;5.448;2024-02-26T12:31:33;96187.38;;;20.34;39.02
28267;BME280;15525;45.568;5.448;2024-02-26T12:34:02;96183.06;;;20.87;38.29
28267;BME280;15525;45.568;5.448;2024-02-26T12:36:28;96183.38;;;20.75;38.52
28267;BME280;15525;45.568;5.448;2024-02-26T12:38:53;96192.53;;;20.49;38.77
28267;BME280;15525;45.568;5.448;2024-02-26T12:41:20;96195.59;;;20.44;38.69
28267;BME280;15525;45.568;5.448;2024-02-26T12:43:46;96189.06;;;21.17;38.46
28267;BME280;15525;45.568;5.448;2024-02-26T12:46:11;96192.63;;;21.28;38.32
28267;BME280;15525;45.568;5.448;2024-02-26T12:48:38;96180.78;;;21.89;37.88
28267;BME280;15525;45.568;5.448;2024-02-26T12:51:04;96192.09;;;22.15;37.28
28267;BME280;15525;45.568;5.448;2024-02-26T12:53:31;96179.19;;;21.81;37.49
28267;BME280;15525;45.568;5.448;2024-02-26T12:55:57;96174.91;;;21.87;37.37
28267;BME280;15525;45.568;5.448;2024-02-26T12:58:23;96189.72;;;22.07;36.80
28267;BME280;15525;45.568;5.448;2024-02-26T13:00:54;96176.13;;;22.59;36.58